createdAt,value
2018-03-31T00:01:46.277Z,9.23
2018-03-31T00:04:14.006Z,8.88
2018-03-31T00:06:41.763Z,8.70
2018-03-31T00:09:09.506Z,8.90
2018-03-31T00:11:37.245Z,8.87
2018-03-31T00:14:05.006Z,9.00
2018-03-31T00:16:32.815Z,9.10
2018-03-31T00:19:00.542Z,9.18
2018-03-31T00:21:28.308Z,9.15
2018-03-31T00:23:56.034Z,9.13
2018-03-31T00:26:23.798Z,9.38
2018-03-31T00:28:51.536Z,9.73
2018-03-31T00:31:19.282Z,9.20
2018-03-31T00:33:47.078Z,9.40
2018-03-31T00:36:14.814Z,9.98
2018-03-31T00:38:42.572Z,9.98
2018-03-31T00:41:10.314Z,9.90
2018-03-31T00:43:38.075Z,10.00
2018-03-31T00:46:05.829Z,9.43
2018-03-31T00:48:33.549Z,9.10
2018-03-31T00:51:01.344Z,9.63
2018-03-31T00:53:29.044Z,9.30
2018-03-31T00:55:56.802Z,9.48
2018-03-31T00:58:24.557Z,9.57
2018-03-31T01:00:52.325Z,9.20
2018-03-31T01:03:20.082Z,9.40
2018-03-31T01:05:48.573Z,9.30
2018-03-31T01:08:16.320Z,9.10
2018-03-31T01:10:44.814Z,8.90
2018-03-31T01:13:12.561Z,9.57
2018-03-31T01:15:41.049Z,9.30
2018-03-31T01:18:09.562Z,9.13
2018-03-31T01:20:37.421Z,9.30
2018-03-31T01:23:05.171Z,9.50
2018-03-31T01:25:32.951Z,9.55
2018-03-31T01:28:00.723Z,9.65
2018-03-31T01:30:28.466Z,9.60
2018-03-31T01:32:56.202Z,9.57
2018-03-31T01:35:23.961Z,9.32
2018-03-31T01:37:51.683Z,10.05
2018-03-31T01:40:19.419Z,9.50
2018-03-31T01:42:47.952Z,9.32
2018-03-31T01:45:15.749Z,9.70
2018-03-31T01:47:43.505Z,9.48
2018-03-31T01:50:11.231Z,8.90
2018-03-31T01:52:39.042Z,9.75
2018-03-31T01:55:06.774Z,9.43
2018-03-31T01:57:35.267Z,9.38
2018-03-31T02:00:03.038Z,9.07
2018-03-31T02:02:30.797Z,9.32
2018-03-31T02:04:58.542Z,10.05
2018-03-31T02:07:26.294Z,9.48
2018-03-31T02:09:54.038Z,10.00
2018-03-31T02:12:21.810Z,9.38
2018-03-31T02:14:49.561Z,9.43
2018-03-31T02:17:18.077Z,10.02
2018-03-31T02:19:45.829Z,9.68
2018-03-31T02:22:13.586Z,9.95
2018-03-31T02:24:41.322Z,10.00
2018-03-31T02:27:09.844Z,9.60
2018-03-31T02:29:37.573Z,9.80
2018-03-31T02:32:06.095Z,9.48
2018-03-31T02:34:33.823Z,9.40
2018-03-31T02:37:02.324Z,9.98
2018-03-31T02:39:30.073Z,9.85
2018-03-31T02:41:58.590Z,9.70
2018-03-31T02:44:26.341Z,9.85
2018-03-31T02:46:54.082Z,10.07
2018-03-31T02:49:22.573Z,9.93
2018-03-31T02:51:50.317Z,10.03
2018-03-31T02:54:18.866Z,10.05
2018-03-31T02:56:46.610Z,10.13
2018-03-31T02:59:14.385Z,9.77
2018-03-31T03:01:42.135Z,9.70
2018-03-31T03:04:09.867Z,9.55
2018-03-31T03:06:38.402Z,9.45
2018-03-31T03:09:06.129Z,9.57
2018-03-31T03:11:33.880Z,9.20
2018-03-31T03:14:01.635Z,10.00
2018-03-31T03:16:29.122Z,10.00
2018-03-31T03:18:56.640Z,9.20
2018-03-31T03:21:24.142Z,9.27
2018-03-31T03:23:52.439Z,9.25
2018-03-31T03:26:20.683Z,9.40
2018-03-31T03:28:48.182Z,9.38
2018-03-31T03:31:15.703Z,9.27
2018-03-31T03:33:43.194Z,9.43
2018-03-31T03:36:10.697Z,9.57
2018-03-31T03:38:38.226Z,9.45
2018-03-31T03:41:05.724Z,10.35
2018-03-31T03:43:33.242Z,10.32
2018-03-31T03:46:00.741Z,9.70
2018-03-31T03:48:28.254Z,9.70
2018-03-31T03:50:55.749Z,9.60
2018-03-31T03:53:23.271Z,9.52
2018-03-31T03:55:50.754Z,9.35
2018-03-31T03:58:18.266Z,9.80
2018-03-31T04:00:46.527Z,10.10
2018-03-31T04:03:14.030Z,9.70
2018-03-31T04:05:41.540Z,10.02
2018-03-31T04:08:09.031Z,9.75
2018-03-31T04:10:36.538Z,9.95
2018-03-31T04:13:04.022Z,10.03
2018-03-31T04:15:31.550Z,10.00
2018-03-31T04:17:59.829Z,10.27
2018-03-31T04:20:27.885Z,10.10
2018-03-31T04:22:55.393Z,9.45
2018-03-31T04:25:22.921Z,10.75
2018-03-31T04:27:50.422Z,10.27
2018-03-31T04:30:17.964Z,10.57
2018-03-31T04:32:45.471Z,10.60
2018-03-31T04:35:12.997Z,10.35
2018-03-31T04:37:41.258Z,10.30
2018-03-31T04:40:08.778Z,10.30
2018-03-31T04:42:36.262Z,10.63
2018-03-31T04:45:03.798Z,10.60
2018-03-31T04:47:31.293Z,10.60
2018-03-31T04:49:58.811Z,10.70
2018-03-31T04:52:26.355Z,10.70
2018-03-31T04:54:53.876Z,10.88
2018-03-31T04:57:21.407Z,10.43
2018-03-31T04:59:51.962Z,11.20
2018-03-31T05:02:19.455Z,10.77
2018-03-31T05:04:46.938Z,11.10
2018-03-31T05:07:14.445Z,10.77
2018-03-31T05:09:42.754Z,10.75
2018-03-31T05:12:10.278Z,11.23
2018-03-31T05:14:38.547Z,11.00
2018-03-31T05:17:06.059Z,11.07
2018-03-31T05:19:33.551Z,11.53
2018-03-31T05:22:01.902Z,12.20
2018-03-31T05:24:30.132Z,11.57
2018-03-31T05:26:58.421Z,11.43
2018-03-31T05:29:25.966Z,10.95
2018-03-31T05:31:54.242Z,11.55
2018-03-31T05:34:22.530Z,11.37
2018-03-31T05:36:50.802Z,12.02
2018-03-31T05:39:19.093Z,11.52
2018-03-31T05:41:46.622Z,11.55
2018-03-31T05:44:14.122Z,12.23
2018-03-31T05:46:41.634Z,11.00
2018-03-31T05:49:09.169Z,11.43
2018-03-31T05:51:36.683Z,11.32
2018-03-31T05:54:04.985Z,12.10
2018-03-31T05:56:32.523Z,11.45
2018-03-31T05:59:00.789Z,10.82
2018-03-31T06:01:29.082Z,12.03
2018-03-31T06:03:56.578Z,11.70
2018-03-31T06:06:24.099Z,11.75
2018-03-31T06:08:51.593Z,11.50
2018-03-31T06:11:19.115Z,11.67
2018-03-31T06:13:46.630Z,11.32
2018-03-31T06:16:14.155Z,11.43
2018-03-31T06:18:41.707Z,11.30
2018-03-31T06:21:09.222Z,11.50
2018-03-31T06:23:36.718Z,11.23
2018-03-31T06:26:04.241Z,11.37
2018-03-31T06:28:31.747Z,11.10
2018-03-31T06:30:59.282Z,11.23
2018-03-31T06:33:26.786Z,11.60
2018-03-31T06:35:54.297Z,12.00
2018-03-31T06:38:21.819Z,10.63
2018-03-31T06:40:49.301Z,10.57
2018-03-31T06:43:16.849Z,11.48
2018-03-31T06:45:44.354Z,11.35
2018-03-31T06:48:11.866Z,11.27
2018-03-31T06:50:39.456Z,11.88
2018-03-31T06:53:06.906Z,11.60
2018-03-31T06:55:35.215Z,11.60
2018-03-31T06:58:02.794Z,12.37
2018-03-31T07:00:30.741Z,12.00
2018-03-31T07:02:58.261Z,11.73
2018-03-31T07:05:26.516Z,12.00
2018-03-31T07:07:54.058Z,11.85
2018-03-31T07:10:21.578Z,12.33
2018-03-31T07:12:49.113Z,12.48
2018-03-31T07:15:17.514Z,12.45
2018-03-31T07:17:45.012Z,12.80
2018-03-31T07:20:12.523Z,13.15
2018-03-31T07:22:41.237Z,12.75
2018-03-31T07:25:08.721Z,12.93
2018-03-31T07:27:36.402Z,13.68
2018-03-31T07:30:03.926Z,13.90
2018-03-31T07:32:31.515Z,13.00
2018-03-31T07:34:59.043Z,12.15
2018-03-31T07:37:26.663Z,13.13
2018-03-31T07:39:55.032Z,13.60
2018-03-31T07:42:22.613Z,13.05
2018-03-31T07:44:51.050Z,13.95
2018-03-31T07:47:18.568Z,13.05
2018-03-31T07:49:46.178Z,14.20
2018-03-31T07:52:13.790Z,13.88
2018-03-31T07:54:41.307Z,14.03
2018-03-31T07:57:08.986Z,13.90
2018-03-31T07:59:37.320Z,13.93
2018-03-31T08:02:04.990Z,14.00
2018-03-31T08:04:32.526Z,14.10
2018-03-31T08:07:00.023Z,14.27
2018-03-31T08:09:27.698Z,13.97
2018-03-31T08:11:55.441Z,14.40
2018-03-31T08:14:22.991Z,14.13
2018-03-31T08:16:50.545Z,15.15
2018-03-31T08:19:18.617Z,15.18
2018-03-31T08:21:46.292Z,15.48
2018-03-31T08:24:14.826Z,15.02
2018-03-31T08:26:42.371Z,15.77
2018-03-31T08:29:10.658Z,15.45
2018-03-31T08:31:38.279Z,14.93
2018-03-31T08:34:05.906Z,15.83
2018-03-31T08:36:33.443Z,16.65
2018-03-31T08:39:01.113Z,16.98
2018-03-31T08:41:28.739Z,16.75
2018-03-31T08:43:57.039Z,16.75
2018-03-31T08:46:25.769Z,16.65
2018-03-31T08:48:53.295Z,16.10
2018-03-31T08:51:20.822Z,17.33
2018-03-31T08:53:48.350Z,17.10
2018-03-31T08:56:15.854Z,16.73
2018-03-31T08:58:44.150Z,17.83
2018-03-31T09:01:11.643Z,17.02
2018-03-31T09:03:39.129Z,17.33
2018-03-31T09:06:06.651Z,17.83
2018-03-31T09:08:34.184Z,17.50
2018-03-31T09:11:02.440Z,18.90
2018-03-31T09:13:34.255Z,18.33
2018-03-31T09:16:01.745Z,18.40
2018-03-31T09:18:29.238Z,19.73
2018-03-31T09:20:56.799Z,18.48
2018-03-31T09:23:24.250Z,19.17
2018-03-31T09:25:51.807Z,18.92
2018-03-31T09:28:19.349Z,19.15
2018-03-31T09:30:47.628Z,19.02
2018-03-31T09:33:15.889Z,19.05
2018-03-31T09:35:43.425Z,20.45
2018-03-31T09:40:44.879Z,20.40
2018-03-31T09:43:12.387Z,19.60
2018-03-31T09:45:39.900Z,19.50
2018-03-31T09:48:07.424Z,19.75
2018-03-31T09:50:34.922Z,20.27
2018-03-31T09:53:02.437Z,20.35
2018-03-31T09:55:30.729Z,19.35
2018-03-31T09:57:58.225Z,19.65
2018-03-31T10:00:31.575Z,20.12
2018-03-31T10:02:59.062Z,19.17
2018-03-31T10:05:26.558Z,19.85
2018-03-31T10:07:54.103Z,19.52
2018-03-31T10:10:21.626Z,19.48
2018-03-31T10:12:49.152Z,18.65
2018-03-31T10:15:17.431Z,19.98
2018-03-31T10:17:45.721Z,20.08
2018-03-31T10:20:14.013Z,19.80
2018-03-31T10:22:41.518Z,19.98
2018-03-31T10:25:09.030Z,19.05
2018-03-31T10:27:36.544Z,19.90
2018-03-31T10:30:04.078Z,18.55
2018-03-31T10:32:32.369Z,18.45
2018-03-31T10:34:59.864Z,18.42
2018-03-31T10:37:28.162Z,18.23
2018-03-31T10:39:55.684Z,18.10
2018-03-31T10:42:23.195Z,18.80
2018-03-31T10:44:50.706Z,18.90
2018-03-31T10:47:18.221Z,17.92
2018-03-31T10:49:45.738Z,17.58
2018-03-31T10:52:14.006Z,18.75
2018-03-31T10:54:41.522Z,18.52
2018-03-31T10:57:09.025Z,18.75
2018-03-31T10:59:37.392Z,18.50
2018-03-31T11:02:04.890Z,18.45
2018-03-31T11:04:32.426Z,19.20
2018-03-31T11:07:00.726Z,19.83
2018-03-31T11:09:28.246Z,19.70
2018-03-31T11:11:56.517Z,19.10
2018-03-31T11:14:24.046Z,19.10
2018-03-31T11:16:51.555Z,19.03
2018-03-31T11:19:19.885Z,19.67
2018-03-31T11:21:47.382Z,18.92
2018-03-31T11:24:15.667Z,18.37
2018-03-31T11:26:43.941Z,18.55
2018-03-31T11:29:12.214Z,18.67
2018-03-31T11:31:40.486Z,19.17
2018-03-31T11:34:08.743Z,18.98
2018-03-31T11:36:36.263Z,18.15
2018-03-31T11:39:03.751Z,17.65
2018-03-31T11:41:31.286Z,19.55
2018-03-31T11:43:58.782Z,18.98
2018-03-31T11:46:26.315Z,18.17
2018-03-31T11:48:53.858Z,19.20
2018-03-31T11:51:22.103Z,18.98
2018-03-31T11:53:50.373Z,18.77
2018-03-31T11:56:18.680Z,18.62
2018-03-31T11:58:46.183Z,18.55
2018-03-31T12:01:14.474Z,18.98
2018-03-31T12:03:42.028Z,17.73
2018-03-31T12:06:09.523Z,17.33
2018-03-31T12:08:37.026Z,18.37
2018-03-31T12:11:04.586Z,17.33
2018-03-31T12:13:32.087Z,17.93
2018-03-31T12:16:00.342Z,18.55
2018-03-31T12:18:27.868Z,17.92
2018-03-31T12:20:55.385Z,18.47
2018-03-31T12:23:23.650Z,18.00
2018-03-31T12:25:51.916Z,17.25
2018-03-31T12:28:19.439Z,17.95
2018-03-31T12:30:46.928Z,17.50
2018-03-31T12:33:14.443Z,16.80
2018-03-31T12:35:41.944Z,17.20
2018-03-31T12:38:09.450Z,16.85
2018-03-31T12:40:36.959Z,16.70
2018-03-31T12:43:04.477Z,15.98
2018-03-31T12:45:31.973Z,17.47
2018-03-31T12:47:59.491Z,16.95
2018-03-31T12:50:27.017Z,17.02
2018-03-31T12:52:55.274Z,16.92
2018-03-31T12:55:22.761Z,17.02
2018-03-31T12:57:51.039Z,17.52
2018-03-31T13:00:19.311Z,17.17
2018-03-31T13:02:47.606Z,17.80
2018-03-31T13:05:15.114Z,17.62
2018-03-31T13:07:42.618Z,17.12
2018-03-31T13:10:10.130Z,17.85
2018-03-31T13:12:37.627Z,17.70
2018-03-31T13:15:05.911Z,17.58
2018-03-31T13:17:33.397Z,16.95
2018-03-31T13:20:00.911Z,17.13
2018-03-31T13:22:29.187Z,16.77
2018-03-31T13:24:57.456Z,17.40
2018-03-31T13:27:25.030Z,17.42
2018-03-31T13:29:53.290Z,17.25
2018-03-31T13:32:20.812Z,17.33
2018-03-31T13:34:48.333Z,17.30
2018-03-31T13:37:16.590Z,17.00
2018-03-31T13:39:44.881Z,17.75
2018-03-31T13:42:13.161Z,17.27
2018-03-31T13:44:40.664Z,18.60
2018-03-31T13:47:08.174Z,17.35
2018-03-31T13:49:36.438Z,17.95
2018-03-31T13:52:03.951Z,17.80
2018-03-31T13:54:31.483Z,18.77
2018-03-31T13:56:58.992Z,17.45
2018-03-31T13:59:26.502Z,18.73
2018-03-31T14:01:54.002Z,18.00
2018-03-31T14:04:21.510Z,18.05
2018-03-31T14:06:49.051Z,18.05
2018-03-31T14:09:17.308Z,18.00
2018-03-31T14:11:44.813Z,18.83
2018-03-31T14:14:12.329Z,19.10
2018-03-31T14:16:39.819Z,18.08
2018-03-31T14:19:08.134Z,18.27
2018-03-31T14:21:35.605Z,17.98
2018-03-31T14:24:03.146Z,18.45
2018-03-31T14:29:05.282Z,18.42
2018-03-31T14:31:33.571Z,18.80
2018-03-31T14:34:01.878Z,18.87
2018-03-31T14:36:29.375Z,18.25
2018-03-31T14:38:56.904Z,17.65
2018-03-31T14:41:24.392Z,18.85
2018-03-31T14:43:51.882Z,18.97
2018-03-31T14:46:20.160Z,19.37
2018-03-31T14:48:48.409Z,18.25
2018-03-31T14:51:15.982Z,18.35
2018-03-31T14:53:44.238Z,19.52
2018-03-31T14:56:11.752Z,19.37
2018-03-31T14:58:39.277Z,21.00
2018-03-31T15:01:07.563Z,24.10
2018-03-31T15:03:35.849Z,20.45
2018-03-31T15:06:04.111Z,18.90
2018-03-31T15:08:32.362Z,19.77
2018-03-31T15:10:59.885Z,20.58
2018-03-31T15:13:27.374Z,19.80
2018-03-31T15:15:54.909Z,19.75
2018-03-31T15:18:22.379Z,20.53
2018-03-31T15:20:49.910Z,20.62
2018-03-31T15:23:17.397Z,19.45
2018-03-31T15:25:45.470Z,20.65
2018-03-31T15:28:13.725Z,20.50
2018-03-31T15:30:41.255Z,19.15
2018-03-31T15:33:09.544Z,20.20
2018-03-31T15:35:37.890Z,20.48
2018-03-31T15:38:06.230Z,20.15
2018-03-31T15:40:33.725Z,20.75
2018-03-31T15:43:01.246Z,20.70
2018-03-31T15:45:28.773Z,21.17
2018-03-31T15:47:57.055Z,21.77
2018-03-31T15:50:24.588Z,21.62
2018-03-31T15:52:52.089Z,22.23
2018-03-31T15:55:19.687Z,22.55
2018-03-31T15:57:47.170Z,22.40
2018-03-31T16:00:15.461Z,23.77
2018-03-31T16:02:43.720Z,24.67
2018-03-31T16:05:12.041Z,25.50
2018-03-31T16:07:39.530Z,27.57
2018-03-31T16:10:07.062Z,27.10
2018-03-31T16:12:34.545Z,28.77
2018-03-31T16:15:02.042Z,28.10
2018-03-31T16:17:30.329Z,27.70
2018-03-31T16:19:58.660Z,31.10
2018-03-31T16:22:26.134Z,27.37
2018-03-31T16:24:53.732Z,24.35
2018-03-31T16:27:21.248Z,24.58
2018-03-31T16:29:48.756Z,24.95
2018-03-31T16:32:16.277Z,25.20
2018-03-31T16:34:43.788Z,25.55
2018-03-31T16:37:12.114Z,25.98
2018-03-31T16:39:39.665Z,27.35
2018-03-31T16:42:07.238Z,27.17
2018-03-31T16:44:35.511Z,25.83
2018-03-31T16:47:03.026Z,26.20
2018-03-31T16:49:30.522Z,26.85
2018-03-31T16:51:58.037Z,25.50
2018-03-31T16:54:25.558Z,26.23
2018-03-31T16:56:53.054Z,27.52
2018-03-31T16:59:20.542Z,27.70
2018-03-31T17:01:48.068Z,27.93
2018-03-31T17:04:15.589Z,27.70
2018-03-31T17:06:43.865Z,28.15
2018-03-31T17:09:12.127Z,28.75
2018-03-31T17:11:39.642Z,28.70
2018-03-31T17:14:07.121Z,27.13
2018-03-31T17:16:34.632Z,28.20
2018-03-31T17:19:02.905Z,26.40
2018-03-31T17:21:31.186Z,23.60
2018-03-31T17:23:59.547Z,23.80
2018-03-31T17:26:27.830Z,24.42
2018-03-31T17:28:55.321Z,24.65
2018-03-31T17:31:22.835Z,25.30
2018-03-31T17:33:50.406Z,24.08
2018-03-31T17:36:18.680Z,21.85
2018-03-31T17:38:46.970Z,23.07
2018-03-31T17:41:14.494Z,22.65
2018-03-31T17:43:41.987Z,22.10
2018-03-31T17:46:10.270Z,22.08
2018-03-31T17:48:37.814Z,22.13
2018-03-31T17:51:06.076Z,23.52
2018-03-31T17:53:33.587Z,22.50
2018-03-31T17:56:01.143Z,22.48
2018-03-31T17:58:28.647Z,23.17
2018-03-31T18:00:56.276Z,22.80
2018-03-31T18:03:24.502Z,22.62
2018-03-31T18:05:52.790Z,22.77
2018-03-31T18:08:21.059Z,23.27
2018-03-31T18:10:49.315Z,23.40
2018-03-31T18:13:16.831Z,23.05
2018-03-31T18:15:44.333Z,22.57
2018-03-31T18:18:11.823Z,23.87
2018-03-31T18:20:39.346Z,24.30
2018-03-31T18:23:06.854Z,24.17
2018-03-31T18:25:34.338Z,24.60
2018-03-31T18:28:01.846Z,24.50
2018-03-31T18:30:30.114Z,24.12
2018-03-31T18:32:57.633Z,25.42
2018-03-31T18:35:25.118Z,27.27
2018-03-31T18:37:52.704Z,29.87
2018-03-31T18:40:20.988Z,31.67
2018-03-31T18:42:49.246Z,35.78
2018-03-31T18:45:16.771Z,35.72
2018-03-31T18:47:44.259Z,37.55
2018-03-31T18:50:11.820Z,39.20
2018-03-31T18:52:39.316Z,38.28
2018-03-31T18:55:06.841Z,38.92
2018-03-31T18:57:34.340Z,38.55
2018-03-31T19:00:01.835Z,38.13
2018-03-31T19:02:29.409Z,40.28
2018-03-31T19:04:56.969Z,37.67
2018-03-31T19:07:24.548Z,35.72
2018-03-31T19:09:52.800Z,34.58
2018-03-31T19:12:20.304Z,33.92
2018-03-31T19:14:47.831Z,33.93
2018-03-31T19:17:15.330Z,33.53
2018-03-31T19:19:42.853Z,32.70
2018-03-31T19:22:10.333Z,31.10
2018-03-31T19:24:43.510Z,30.50
2018-03-31T19:27:11.894Z,31.48
2018-03-31T19:29:40.144Z,31.23
2018-03-31T19:32:07.658Z,29.75
2018-03-31T19:34:35.184Z,28.83
2018-03-31T19:37:02.692Z,28.12
2018-03-31T19:39:35.967Z,27.70
2018-03-31T19:42:03.428Z,28.40
2018-03-31T19:44:30.929Z,26.65
2018-03-31T19:46:58.461Z,25.95
2018-03-31T19:49:25.980Z,26.10
2018-03-31T19:51:54.243Z,26.20
2018-03-31T19:54:22.506Z,25.92
2018-03-31T19:56:50.077Z,25.37
2018-03-31T19:59:18.349Z,25.50
2018-03-31T20:01:46.626Z,25.25
2018-03-31T20:04:14.906Z,24.52
2018-03-31T20:06:43.166Z,24.12
2018-03-31T20:09:10.678Z,23.87
2018-03-31T20:11:38.206Z,23.48
2018-03-31T20:14:06.495Z,25.12
2018-03-31T20:16:34.760Z,23.85
2018-03-31T20:19:02.270Z,23.23
2018-03-31T20:21:29.757Z,26.08
2018-03-31T20:23:57.276Z,23.33
2018-03-31T20:26:24.782Z,25.30
2018-03-31T20:28:52.304Z,25.67
2018-03-31T20:31:19.826Z,24.48
2018-03-31T20:33:47.343Z,27.50
2018-03-31T20:36:14.887Z,23.70
2018-03-31T20:38:42.373Z,25.60
2018-03-31T20:41:09.942Z,23.17
2018-03-31T20:43:38.203Z,21.85
2018-03-31T20:46:05.692Z,21.92
2018-03-31T20:48:33.983Z,20.53
2018-03-31T20:51:01.536Z,19.87
2018-03-31T20:53:29.067Z,18.95
2018-03-31T20:55:57.330Z,18.17
2018-03-31T20:58:24.914Z,17.77
2018-03-31T21:00:53.169Z,17.87
2018-03-31T21:03:20.694Z,17.12
2018-03-31T21:05:48.199Z,16.67
2018-03-31T21:08:15.734Z,16.70
2018-03-31T21:10:43.241Z,17.12
2018-03-31T21:13:10.762Z,16.05
2018-03-31T21:15:38.301Z,15.95
2018-03-31T21:18:05.806Z,15.90
2018-03-31T21:20:34.074Z,16.62
2018-03-31T21:23:01.596Z,15.75
2018-03-31T21:25:29.105Z,15.73
2018-03-31T21:27:57.395Z,15.43
2018-03-31T21:30:24.897Z,14.98
2018-03-31T21:32:52.455Z,16.75
2018-03-31T21:35:19.950Z,18.12
2018-03-31T21:37:48.224Z,14.25
2018-03-31T21:40:15.832Z,14.65
2018-03-31T21:42:44.113Z,14.25
2018-03-31T21:45:11.646Z,14.90
2018-03-31T21:47:39.126Z,12.20
2018-03-31T21:50:06.649Z,12.80
2018-03-31T21:52:34.902Z,13.68
2018-03-31T21:55:02.413Z,14.75
2018-03-31T21:57:29.930Z,15.73
2018-03-31T21:59:57.554Z,14.80
2018-03-31T22:02:25.049Z,15.45
2018-03-31T22:04:52.555Z,14.50
2018-03-31T22:07:20.067Z,15.02
2018-03-31T22:09:47.554Z,14.17
2018-03-31T22:12:15.053Z,14.43
2018-03-31T22:14:48.337Z,14.18
2018-03-31T22:17:15.823Z,13.95
2018-03-31T22:19:43.314Z,13.57
2018-03-31T22:22:11.606Z,13.75
2018-03-31T22:24:39.103Z,13.32
2018-03-31T22:27:06.590Z,12.60
2018-03-31T22:29:34.871Z,12.70
2018-03-31T22:32:03.135Z,12.37
2018-03-31T22:34:30.655Z,12.25
2018-03-31T22:36:58.162Z,13.68
2018-03-31T22:39:26.422Z,12.23
2018-03-31T22:41:53.958Z,13.90
2018-03-31T22:44:21.466Z,14.07
2018-03-31T22:46:49.716Z,15.25
2018-03-31T22:49:17.228Z,12.93
2018-03-31T22:51:44.749Z,13.53
2018-03-31T22:54:12.266Z,11.50
2018-03-31T22:56:39.878Z,10.43
2018-03-31T22:59:08.155Z,9.82
2018-03-31T23:01:36.416Z,10.20
2018-03-31T23:04:05.014Z,10.07
2018-03-31T23:06:32.754Z,9.63
2018-03-31T23:09:01.274Z,9.05
2018-03-31T23:11:29.029Z,9.02
2018-03-31T23:13:56.981Z,8.63
2018-03-31T23:16:24.721Z,8.33
2018-03-31T23:18:53.241Z,8.40
2018-03-31T23:21:20.979Z,8.20
2018-03-31T23:23:49.481Z,7.33
2018-03-31T23:26:17.246Z,7.62
2018-03-31T23:28:45.010Z,7.80
2018-03-31T23:31:12.737Z,7.80
2018-03-31T23:33:40.453Z,8.33
2018-03-31T23:36:08.197Z,7.78
2018-03-31T23:38:35.705Z,7.50
2018-03-31T23:41:03.202Z,6.90
2018-03-31T23:43:30.778Z,7.22
2018-03-31T23:45:58.286Z,6.97
2018-03-31T23:48:25.795Z,6.90
2018-03-31T23:50:53.274Z,6.75
2018-03-31T23:53:20.782Z,6.78
2018-03-31T23:55:48.281Z,6.10
2018-03-31T23:58:16.649Z,5.60
